createdAt,value
2019-04-01T00:01:24.834Z,14.47
2019-04-01T00:03:54.316Z,15.53
2019-04-01T00:06:23.701Z,15.47
2019-04-01T00:08:53.217Z,13.93
2019-04-01T00:11:22.611Z,17.60
2019-04-01T00:13:52.187Z,17.40
2019-04-01T00:16:21.730Z,17.83
2019-04-01T00:19:02.491Z,20.60
2019-04-01T00:21:22.751Z,21.60
2019-04-01T00:23:52.339Z,20.03
2019-04-01T00:26:22.011Z,22.63
2019-04-01T00:28:51.453Z,25.73
2019-04-01T00:31:20.966Z,25.70
2019-04-01T00:33:50.611Z,29.03
2019-04-01T00:36:20.301Z,24.80
2019-04-01T00:38:49.962Z,28.90
2019-04-01T00:41:19.434Z,29.23
2019-04-01T00:44:01.783Z,25.73
2019-04-01T00:46:32.464Z,27.40
2019-04-01T00:49:01.992Z,32.73
2019-04-01T00:51:32.473Z,30.53
2019-04-01T00:54:02.014Z,28.93
2019-04-01T00:56:31.354Z,30.13
2019-04-01T00:59:00.815Z,34.03
2019-04-01T01:01:30.212Z,35.67
2019-04-01T01:03:59.653Z,40.43
2019-04-01T01:06:29.227Z,36.47
2019-04-01T01:08:59.046Z,36.10
2019-04-01T01:11:28.438Z,39.77
2019-04-01T01:13:57.836Z,37.63
2019-04-01T01:16:27.548Z,38.63
2019-04-01T01:18:57.258Z,38.27
2019-04-01T01:21:26.852Z,37.00
2019-04-01T01:23:56.234Z,37.33
2019-04-01T01:26:25.849Z,42.17
2019-04-01T01:28:55.214Z,42.83
2019-04-01T01:31:24.667Z,41.00
2019-04-01T01:33:54.275Z,40.07
2019-04-01T01:36:23.903Z,43.43
2019-04-01T01:38:53.385Z,42.37
2019-04-01T01:41:22.995Z,43.67
2019-04-01T01:43:52.498Z,46.77
2019-04-01T01:46:22.137Z,47.70
2019-04-01T01:48:51.604Z,45.13
2019-04-01T01:51:21.091Z,42.63
2019-04-01T01:53:50.571Z,44.33
2019-04-01T01:56:20.250Z,43.90
2019-04-01T01:58:49.788Z,43.50
2019-04-01T02:01:19.376Z,42.67
2019-04-01T02:03:48.919Z,45.90
2019-04-01T02:06:18.448Z,45.17
2019-04-01T02:08:47.894Z,47.70
2019-04-01T02:11:17.271Z,48.33
2019-04-01T02:13:46.738Z,46.50
2019-04-01T02:16:16.298Z,46.90
2019-04-01T02:18:45.874Z,52.80
2019-04-01T02:21:15.616Z,47.57
2019-04-01T02:23:45.192Z,48.53
2019-04-01T02:26:14.606Z,52.87
2019-04-01T02:28:44.050Z,52.20
2019-04-01T02:31:13.672Z,50.20
2019-04-01T02:33:43.401Z,52.10
2019-04-01T02:36:12.868Z,51.23
2019-04-01T02:38:42.207Z,53.13
2019-04-01T02:41:11.970Z,55.97
2019-04-01T02:43:41.607Z,54.37
2019-04-01T02:46:11.058Z,50.77
2019-04-01T02:48:40.581Z,53.13
2019-04-01T02:51:10.129Z,49.33
2019-04-01T02:53:39.649Z,48.00
2019-04-01T02:56:09.251Z,47.57
2019-04-01T02:58:38.802Z,52.33
2019-04-01T03:01:08.481Z,58.50
2019-04-01T03:03:37.987Z,50.50
2019-04-01T03:06:07.352Z,49.37
2019-04-01T03:08:36.922Z,48.43
2019-04-01T03:11:10.231Z,51.67
2019-04-01T03:13:38.008Z,53.07
2019-04-01T03:16:07.543Z,51.13
2019-04-01T03:18:37.033Z,50.20
2019-04-01T03:21:06.583Z,50.83
2019-04-01T03:23:36.238Z,51.50
2019-04-01T03:26:05.936Z,45.33
2019-04-01T03:28:35.414Z,51.90
2019-04-01T03:31:04.782Z,50.77
2019-04-01T03:33:34.378Z,51.40
2019-04-01T03:36:03.993Z,48.77
2019-04-01T03:38:33.409Z,52.07
2019-04-01T03:41:03.105Z,49.80
2019-04-01T03:43:32.555Z,49.37
2019-04-01T03:46:01.904Z,49.77
2019-04-01T03:48:31.656Z,50.47
2019-04-01T03:51:01.105Z,54.07
2019-04-01T03:53:30.703Z,48.23
2019-04-01T03:56:00.257Z,49.97
2019-04-01T03:58:29.857Z,58.73
2019-04-01T04:00:59.571Z,49.47
2019-04-01T04:03:29.241Z,57.43
2019-04-01T04:06:05.293Z,54.87
2019-04-01T04:08:34.831Z,51.83
2019-04-01T04:11:04.408Z,50.33
2019-04-01T04:13:33.977Z,55.27
2019-04-01T04:16:03.561Z,52.17
2019-04-01T04:18:32.926Z,58.33
2019-04-01T04:21:02.466Z,52.07
2019-04-01T04:23:32.022Z,53.13
2019-04-01T04:26:01.579Z,57.87
2019-04-01T04:28:31.343Z,55.97
2019-04-01T04:31:00.781Z,51.07
2019-04-01T04:33:30.184Z,51.20
2019-04-01T04:35:59.790Z,58.57
2019-04-01T04:38:29.968Z,53.47
2019-04-01T04:41:00.322Z,54.90
2019-04-01T04:43:30.389Z,51.73
2019-04-01T04:46:00.555Z,54.47
2019-04-01T04:48:49.135Z,56.37
2019-04-01T04:51:18.533Z,53.37
2019-04-01T04:53:48.134Z,56.20
2019-04-01T04:56:17.680Z,55.83
2019-04-01T04:58:47.170Z,54.97
2019-04-01T05:01:16.837Z,55.23
2019-04-01T05:03:46.362Z,58.83
2019-04-01T05:06:16.099Z,52.17
2019-04-01T05:08:45.839Z,56.30
2019-04-01T05:11:15.206Z,58.13
2019-04-01T05:13:44.553Z,57.63
2019-04-01T05:16:14.022Z,49.93
2019-04-01T05:18:43.565Z,53.60
2019-04-01T05:21:14.923Z,50.97
2019-04-01T05:23:45.499Z,50.53
2019-04-01T05:26:15.993Z,56.57
2019-04-01T05:28:46.903Z,51.07
2019-04-01T05:31:19.959Z,54.10
2019-04-01T05:33:55.639Z,59.23
2019-04-01T05:36:25.011Z,55.07
2019-04-01T05:38:54.670Z,57.97
2019-04-01T05:41:24.277Z,59.27
2019-04-01T05:43:54.450Z,54.67
2019-04-01T05:46:24.250Z,51.10
2019-04-01T05:48:53.924Z,53.57
2019-04-01T05:51:23.367Z,56.37
2019-04-01T05:53:52.951Z,61.30
2019-04-01T05:56:23.106Z,58.07
2019-04-01T05:58:52.965Z,59.47
2019-04-01T06:01:26.859Z,56.03
2019-04-01T06:03:56.401Z,60.93
2019-04-01T06:06:25.931Z,54.30
2019-04-01T06:08:55.915Z,62.00
2019-04-01T06:11:25.512Z,60.70
2019-04-01T06:13:56.120Z,53.73
2019-04-01T06:16:25.620Z,56.63
2019-04-01T06:18:55.103Z,56.37
2019-04-01T06:21:24.737Z,53.50
2019-04-01T06:23:54.356Z,54.33
2019-04-01T06:26:23.803Z,55.27
2019-04-01T06:28:53.334Z,57.27
2019-04-01T06:31:22.725Z,55.70
2019-04-01T06:33:52.512Z,63.63
2019-04-01T06:36:22.179Z,60.97
2019-04-01T06:38:53.711Z,58.13
2019-04-01T06:41:23.066Z,58.67
2019-04-01T06:43:52.584Z,61.20
2019-04-01T06:46:22.082Z,60.40
2019-04-01T06:48:51.701Z,53.70
2019-04-01T06:51:21.158Z,56.83
2019-04-01T06:53:50.774Z,56.37
2019-04-01T06:56:20.519Z,61.60
2019-04-01T06:58:50.023Z,63.97
2019-04-01T07:01:20.137Z,64.47
2019-04-01T07:03:49.824Z,59.27
2019-04-01T07:06:19.315Z,57.90
2019-04-01T07:08:48.835Z,51.30
2019-04-01T07:11:18.792Z,71.97
2019-04-01T07:13:48.248Z,58.43
2019-04-01T07:16:17.646Z,58.67
2019-04-01T07:18:47.206Z,54.47
2019-04-01T07:21:16.990Z,57.57
2019-04-01T07:23:46.574Z,56.87
2019-04-01T07:26:16.150Z,54.13
2019-04-01T07:28:46.157Z,52.73
2019-04-01T07:31:16.008Z,50.17
2019-04-01T07:33:45.400Z,57.03
2019-04-01T07:36:15.055Z,50.70
2019-04-01T07:38:44.449Z,49.67
2019-04-01T07:41:14.036Z,49.47
2019-04-01T07:43:43.435Z,50.43
2019-04-01T07:46:13.275Z,50.37
2019-04-01T07:48:42.841Z,49.10
2019-04-01T07:51:12.312Z,50.27
2019-04-01T07:53:42.215Z,50.93
2019-04-01T07:56:11.570Z,43.23
2019-04-01T07:58:40.987Z,48.67
2019-04-01T08:01:10.394Z,51.30
2019-04-01T08:03:41.939Z,47.40
2019-04-01T08:06:11.482Z,49.07
2019-04-01T08:08:41.000Z,50.13
2019-04-01T08:11:10.808Z,47.10
2019-04-01T08:13:40.348Z,46.57
2019-04-01T08:16:09.957Z,45.40
2019-04-01T08:18:39.574Z,46.87
2019-04-01T08:21:09.094Z,45.20
2019-04-01T08:23:39.122Z,43.20
2019-04-01T08:26:08.830Z,52.50
2019-04-01T08:28:38.646Z,45.57
2019-04-01T08:31:08.866Z,46.43
2019-04-01T08:33:38.502Z,46.07
2019-04-01T08:36:07.965Z,45.70
2019-04-01T08:38:37.707Z,46.50
2019-04-01T08:41:07.107Z,48.53
2019-04-01T08:43:36.710Z,46.13
2019-04-01T08:46:06.106Z,48.63
2019-04-01T08:48:35.819Z,47.20
2019-04-01T08:51:05.440Z,45.93
2019-04-01T08:53:35.260Z,44.80
2019-04-01T08:56:04.767Z,48.23
2019-04-01T08:58:34.145Z,45.87
2019-04-01T09:01:04.721Z,46.87
2019-04-01T09:03:34.221Z,47.37
2019-04-01T09:06:03.978Z,44.67
2019-04-01T09:08:35.703Z,41.73
2019-04-01T09:11:05.381Z,43.83
2019-04-01T09:13:35.368Z,42.53
2019-04-01T09:16:04.828Z,41.70
2019-04-01T09:18:34.228Z,40.73
2019-04-01T09:21:03.707Z,36.13
2019-04-01T09:23:33.532Z,37.87
2019-04-01T09:26:02.877Z,40.73
2019-04-01T09:28:32.371Z,37.30
2019-04-01T09:31:01.893Z,37.83
2019-04-01T09:33:31.596Z,39.10
2019-04-01T09:36:00.979Z,40.27
2019-04-01T09:38:30.386Z,39.53
2019-04-01T09:41:00.010Z,39.60
2019-04-01T09:43:29.557Z,37.20
2019-04-01T09:45:59.470Z,37.37
2019-04-01T09:48:29.823Z,37.57
2019-04-01T09:50:59.279Z,36.07
2019-04-01T09:53:28.788Z,40.67
2019-04-01T09:55:58.305Z,37.60
2019-04-01T09:58:27.791Z,33.37
2019-04-01T10:00:57.405Z,34.10
2019-04-01T10:03:27.019Z,37.60
2019-04-01T10:05:56.532Z,36.30
2019-04-01T10:08:41.132Z,42.97
2019-04-01T10:10:57.582Z,38.03
2019-04-01T10:13:27.251Z,32.80
2019-04-01T10:15:56.768Z,31.90
2019-04-01T10:18:26.226Z,35.93
2019-04-01T10:20:55.751Z,32.63
2019-04-01T10:23:25.244Z,32.10
2019-04-01T10:25:55.795Z,31.40
2019-04-01T10:28:25.238Z,40.30
2019-04-01T10:30:54.773Z,35.40
2019-04-01T10:33:24.233Z,32.13
2019-04-01T10:35:53.749Z,39.10
2019-04-01T10:38:25.664Z,33.90
2019-04-01T10:40:55.069Z,32.47
2019-04-01T10:43:24.455Z,34.17
2019-04-01T10:45:53.976Z,31.83
2019-04-01T10:48:23.527Z,33.23
2019-04-01T10:50:53.134Z,32.53
2019-04-01T10:53:22.597Z,32.27
2019-04-01T10:55:52.095Z,31.63
2019-04-01T10:58:21.636Z,34.57
2019-04-01T11:00:51.516Z,34.73
2019-04-01T11:03:21.095Z,32.27
2019-04-01T11:05:50.748Z,38.27
2019-04-01T11:08:20.339Z,32.20
2019-04-01T11:10:50.133Z,30.67
2019-04-01T11:13:20.232Z,32.03
2019-04-01T11:15:51.348Z,30.70
2019-04-01T11:18:20.871Z,30.50
2019-04-01T11:20:51.875Z,32.10
2019-04-01T11:23:21.732Z,36.40
2019-04-01T11:25:51.269Z,34.70
2019-04-01T11:28:20.952Z,34.27
2019-04-01T11:30:50.555Z,33.07
2019-04-01T11:33:20.576Z,31.73
2019-04-01T11:35:50.168Z,37.00
2019-04-01T11:38:20.215Z,33.47
2019-04-01T11:41:08.664Z,33.23
2019-04-01T11:43:38.233Z,35.77
2019-04-01T11:46:07.702Z,34.57
2019-04-01T11:48:37.388Z,33.30
2019-04-01T11:51:06.890Z,35.17
2019-04-01T11:53:36.632Z,35.53
2019-04-01T11:56:06.804Z,31.57
2019-04-01T11:58:36.193Z,33.70
2019-04-01T12:01:05.719Z,31.53
2019-04-01T12:03:35.288Z,38.23
2019-04-01T12:06:04.675Z,31.80
2019-04-01T12:08:34.212Z,31.27
2019-04-01T12:11:03.946Z,37.47
2019-04-01T12:13:33.516Z,33.13
2019-04-01T12:16:02.926Z,35.73
2019-04-01T12:18:32.772Z,33.47
2019-04-01T12:21:02.331Z,34.37
2019-04-01T12:23:31.708Z,29.77
2019-04-01T12:26:14.373Z,28.57
2019-04-01T12:28:36.204Z,31.67
2019-04-01T12:31:03.920Z,31.57
2019-04-01T12:33:33.744Z,29.80
2019-04-01T12:36:04.409Z,30.83
2019-04-01T12:38:33.791Z,29.27
2019-04-01T12:41:04.090Z,29.37
2019-04-01T12:43:33.722Z,30.17
2019-04-01T12:46:03.333Z,30.67
2019-04-01T12:48:33.118Z,30.50
2019-04-01T12:51:02.563Z,31.83
2019-04-01T12:53:31.880Z,28.90
2019-04-01T12:56:01.594Z,28.77
2019-04-01T12:58:31.123Z,28.70
2019-04-01T13:01:01.303Z,27.23
2019-04-01T13:03:31.078Z,28.00
2019-04-01T13:06:00.754Z,26.90
2019-04-01T14:28:43.609Z,20.03
2019-04-01T14:31:13.313Z,20.87
2019-04-01T14:33:42.786Z,19.70
2019-04-01T14:36:12.163Z,22.70
2019-04-01T14:38:41.701Z,21.77
2019-04-01T14:41:14.436Z,24.90
2019-04-01T14:43:43.911Z,21.57
2019-04-01T14:46:13.614Z,21.57
2019-04-01T14:48:43.011Z,22.10
2019-04-01T14:51:12.540Z,20.43
2019-04-01T14:53:41.956Z,18.70
2019-04-01T14:56:11.523Z,21.07
2019-04-01T14:58:41.353Z,19.20
2019-04-01T15:01:10.832Z,19.03
2019-04-01T15:03:40.544Z,19.13
2019-04-01T15:06:10.015Z,20.37
2019-04-01T15:08:39.680Z,21.50
2019-04-01T15:11:09.144Z,22.67
2019-04-01T15:13:39.275Z,25.10
2019-04-01T15:16:09.120Z,22.83
2019-04-01T15:18:39.476Z,20.57
2019-04-01T15:21:11.669Z,20.67
2019-04-01T15:23:40.196Z,21.93
2019-04-01T15:26:12.758Z,21.57
2019-04-01T15:28:42.661Z,20.20
2019-04-01T15:31:12.418Z,21.07
2019-04-01T15:33:41.845Z,20.40
2019-04-01T15:36:11.546Z,18.10
2019-04-01T15:38:41.097Z,19.73
2019-04-01T15:41:10.599Z,16.40
2019-04-01T15:43:41.054Z,17.47
2019-04-01T15:46:12.385Z,17.73
2019-04-01T15:48:41.865Z,18.77
2019-04-01T15:51:11.285Z,16.53
2019-04-01T15:53:40.745Z,15.70
2019-04-01T15:56:10.337Z,19.83
2019-04-01T15:58:39.951Z,16.33
2019-04-01T16:01:09.582Z,17.40
2019-04-01T16:03:39.103Z,17.77
2019-04-01T16:06:08.595Z,17.50
2019-04-01T16:08:38.501Z,19.20
2019-04-01T16:11:07.956Z,18.27
2019-04-01T16:13:38.678Z,16.77
2019-04-01T16:16:08.093Z,17.37
2019-04-01T16:18:37.683Z,17.73
2019-04-01T16:21:07.444Z,17.60
2019-04-01T16:23:36.978Z,18.20
2019-04-01T16:26:09.345Z,18.17
2019-04-01T16:28:37.790Z,19.27
2019-04-01T16:31:07.201Z,17.00
2019-04-01T16:33:36.687Z,16.97
2019-04-01T16:36:06.230Z,16.90
2019-04-01T16:38:35.933Z,17.60
2019-04-01T16:41:05.587Z,19.23
2019-04-01T16:43:38.052Z,17.53
2019-04-01T16:46:07.077Z,17.47
2019-04-01T16:48:38.302Z,18.37
2019-04-01T16:51:08.223Z,19.37
2019-04-01T16:53:37.951Z,19.83
2019-04-01T16:56:07.852Z,18.70
2019-04-01T16:58:37.496Z,20.53
2019-04-01T17:01:07.148Z,18.70
2019-04-01T17:03:36.909Z,20.13
2019-04-01T17:06:06.808Z,17.03
2019-04-01T17:08:36.323Z,18.70
2019-04-01T17:11:06.452Z,19.57
2019-04-01T17:13:36.185Z,20.23
2019-04-01T17:16:06.731Z,17.67
2019-04-01T17:18:36.988Z,18.50
2019-04-01T17:21:07.025Z,20.70
2019-04-01T17:23:36.595Z,19.07
2019-04-01T17:26:08.036Z,17.63
2019-04-01T17:28:37.753Z,18.67
2019-04-01T17:31:07.895Z,24.10
2019-04-01T17:33:37.322Z,18.73
2019-04-01T17:36:07.137Z,18.60
2019-04-01T17:38:36.793Z,19.00
2019-04-01T17:41:07.003Z,16.77
2019-04-01T17:43:36.572Z,17.80
2019-04-01T17:46:06.361Z,20.00
2019-04-01T17:48:35.956Z,19.27
2019-04-01T17:51:05.499Z,16.57
2019-04-01T17:53:35.625Z,17.53
2019-04-01T17:56:06.421Z,17.83
2019-04-01T17:58:36.214Z,18.63
2019-04-01T18:01:06.175Z,18.03
2019-04-01T18:03:35.999Z,15.10
2019-04-01T18:06:05.830Z,14.97
2019-04-01T18:08:36.168Z,17.43
2019-04-01T18:11:05.876Z,17.03
2019-04-01T18:13:35.735Z,17.00
2019-04-01T18:16:05.562Z,15.03
2019-04-01T18:18:35.547Z,14.90
2019-04-01T18:21:05.124Z,20.53
2019-04-01T18:23:34.952Z,15.63
2019-04-01T18:26:05.142Z,15.00
2019-04-01T18:28:35.046Z,18.13
2019-04-01T18:31:05.060Z,19.27
2019-04-01T18:33:35.023Z,17.57
2019-04-01T18:36:04.746Z,18.30
2019-04-01T18:38:34.796Z,18.93
2019-04-01T18:41:05.267Z,15.23
2019-04-01T18:43:35.583Z,17.17
2019-04-01T18:46:05.386Z,15.43
2019-04-01T18:48:35.327Z,17.70
2019-04-01T18:51:05.253Z,17.27
2019-04-01T18:53:36.299Z,18.93
2019-04-01T18:56:06.733Z,16.70
2019-04-01T18:58:36.436Z,22.60
2019-04-01T19:01:06.276Z,19.40
2019-04-01T19:03:36.111Z,18.70
2019-04-01T19:06:07.257Z,18.93
2019-04-01T19:08:37.244Z,23.10
2019-04-01T19:11:07.154Z,18.77
2019-04-01T19:13:37.082Z,19.10
2019-04-01T19:16:07.632Z,19.10
2019-04-01T19:18:39.715Z,19.50
2019-04-01T19:21:09.693Z,18.03
2019-04-01T19:23:39.779Z,18.87
2019-04-01T19:26:10.260Z,19.80
2019-04-01T19:28:41.134Z,19.37
2019-04-01T19:31:12.010Z,20.93
2019-04-01T19:33:42.170Z,20.27
2019-04-01T19:36:11.960Z,22.13
2019-04-01T19:38:41.883Z,22.73
2019-04-01T19:41:11.643Z,21.17
2019-04-01T19:43:41.574Z,21.60
2019-04-01T19:46:11.254Z,22.17
2019-04-01T19:48:40.781Z,19.03
2019-04-01T19:51:10.588Z,18.07
2019-04-01T19:53:40.554Z,22.47
2019-04-01T19:56:10.614Z,18.60
2019-04-01T19:58:40.269Z,19.97
2019-04-01T20:01:10.209Z,21.93
2019-04-01T20:03:39.758Z,21.57
2019-04-01T20:06:09.924Z,19.37
2019-04-01T20:08:39.662Z,21.03
2019-04-01T20:11:09.406Z,24.03
2019-04-01T20:13:41.112Z,19.73
2019-04-01T20:16:11.583Z,24.07
2019-04-01T20:18:41.212Z,24.30
2019-04-01T20:21:11.009Z,22.63
2019-04-01T20:23:40.955Z,26.43
2019-04-01T20:26:10.450Z,24.87
2019-04-01T20:28:42.088Z,25.13
2019-04-01T20:31:12.101Z,25.00
2019-04-01T20:33:42.760Z,25.47
2019-04-01T20:36:12.786Z,25.10
2019-04-01T20:38:42.256Z,29.30
2019-04-01T20:41:11.814Z,26.23
2019-04-01T20:43:41.403Z,23.87
2019-04-01T20:46:11.103Z,24.13
2019-04-01T20:48:41.398Z,23.70
2019-04-01T20:51:10.864Z,28.20
2019-04-01T20:53:41.351Z,27.23
2019-04-01T20:56:10.755Z,26.70
2019-04-01T20:58:42.190Z,27.90
2019-04-01T21:01:11.893Z,28.03
2019-04-01T21:03:41.599Z,27.27
2019-04-01T21:06:11.087Z,26.83
2019-04-01T21:08:40.538Z,30.97
2019-04-01T21:11:11.013Z,24.13
2019-04-01T21:13:40.847Z,28.17
2019-04-01T21:16:10.461Z,29.23
2019-04-01T21:18:40.183Z,27.17
2019-04-01T21:21:10.413Z,24.40
2019-04-01T21:23:40.369Z,27.37
2019-04-01T21:26:10.134Z,29.90
2019-04-01T21:28:39.715Z,25.53
2019-04-01T21:31:09.714Z,26.03
2019-04-01T21:33:39.102Z,26.83
2019-04-01T21:36:08.506Z,29.63
2019-04-01T21:38:37.912Z,25.37
2019-04-01T21:41:07.354Z,29.10
2019-04-01T21:43:37.089Z,29.53
2019-04-01T21:46:06.504Z,26.67
2019-04-01T21:48:36.154Z,28.80
2019-04-01T21:51:05.597Z,30.13
2019-04-01T21:53:35.092Z,31.47
2019-04-01T21:56:04.771Z,28.77
2019-04-01T21:58:34.184Z,33.07
2019-04-01T22:01:03.810Z,32.57
2019-04-01T22:03:33.536Z,34.13
2019-04-01T22:06:02.959Z,30.63
2019-04-01T22:08:32.555Z,32.70
2019-04-01T22:11:05.254Z,33.07
2019-04-01T22:13:34.691Z,30.20
2019-04-01T22:16:04.129Z,36.23
2019-04-01T22:18:33.552Z,33.57
2019-04-01T22:21:03.367Z,33.77
2019-04-01T22:23:32.743Z,31.27
2019-04-01T22:26:03.037Z,35.27
2019-04-01T22:28:32.923Z,33.63
2019-04-01T22:31:02.838Z,32.23
2019-04-01T22:33:32.847Z,33.00
2019-04-01T22:36:02.279Z,35.00
2019-04-01T22:38:31.958Z,32.73
2019-04-01T22:41:01.432Z,32.20
2019-04-01T22:43:31.289Z,32.83
2019-04-01T22:46:00.654Z,35.57
2019-04-01T22:48:30.099Z,33.57
2019-04-01T22:50:59.636Z,32.90
2019-04-01T22:53:29.272Z,30.43
2019-04-01T22:55:58.681Z,31.17
2019-04-01T22:58:28.171Z,31.10
2019-04-01T23:00:57.656Z,35.00
2019-04-01T23:03:27.139Z,30.87
2019-04-01T23:05:56.687Z,33.20
2019-04-01T23:08:26.171Z,30.90
2019-04-01T23:10:56.520Z,32.73
2019-04-01T23:13:26.510Z,32.30
2019-04-01T23:15:55.964Z,32.37
2019-04-01T23:18:25.459Z,31.37
2019-04-01T23:20:55.106Z,29.47
2019-04-01T23:23:24.624Z,31.07
2019-04-01T23:25:54.257Z,32.17
2019-04-01T23:28:24.668Z,31.53
2019-04-01T23:30:54.168Z,33.07
2019-04-01T23:33:24.761Z,32.70
2019-04-01T23:35:54.241Z,30.77
2019-04-01T23:38:23.912Z,35.33
2019-04-01T23:40:53.380Z,31.37
2019-04-01T23:43:22.779Z,32.20
2019-04-01T23:45:52.515Z,35.90
2019-04-01T23:48:22.079Z,34.10
2019-04-01T23:50:51.441Z,31.90
2019-04-01T23:53:21.074Z,31.90
2019-04-01T23:55:50.637Z,32.87
2019-04-01T23:58:20.038Z,37.37
